Time;durP1;ratioP1;P1;durP2;ratioP2;P2;SDS_P1;SDS_P2;PMS_P1;PMS_P2;Temp;Humidity;BMP_temperature;BMP_pressure;BME280_temperature;BME280_humidity;BME280_pressure;Samples;Min_cycle;Max_cycle;Signal;HPM_P1;HPM_P2
2021/09/04 00:01:46;;;;;;;54.92;33.00;;;;;;;12.26;100.00;101037.09;5088713;28;20532;-69
2021/09/04 00:04:13;;;;;;;54.33;33.90;;;;;;;12.23;100.00;101028.50;5079174;28;20063;-69
2021/09/04 00:06:41;;;;;;;52.15;32.70;;;;;;;12.19;100.00;101034.91;5080451;28;20217;-69
2021/09/04 00:09:08;;;;;;;51.30;32.88;;;;;;;12.16;100.00;101030.66;5077724;28;20529;-69
2021/09/04 00:11:35;;;;;;;47.70;31.70;;;;;;;12.15;100.00;101035.06;5086282;28;20461;-68
2021/09/04 00:14:02;;;;;;;54.58;34.38;;;;;;;12.13;100.00;101039.59;5079815;28;20142;-70
2021/09/04 00:16:29;;;;;;;50.80;32.30;;;;;;;12.31;100.00;101039.44;5087582;28;20573;-69
2021/09/04 00:18:57;;;;;;;46.65;30.67;;;;;;;12.65;100.00;101044.41;5081359;28;20120;-70
2021/09/04 00:21:24;;;;;;;48.53;31.67;;;;;;;12.47;100.00;101039.38;5084589;28;20044;-69
2021/09/04 00:23:51;;;;;;;49.70;32.20;;;;;;;12.37;100.00;101037.28;5085414;28;20086;-69
2021/09/04 00:26:18;;;;;;;55.95;33.33;;;;;;;12.40;100.00;101039.75;5086805;28;20159;-68
2021/09/04 00:28:45;;;;;;;53.90;31.38;;;;;;;12.31;100.00;101036.81;5087158;28;20048;-69
2021/09/04 00:31:13;;;;;;;52.42;32.22;;;;;;;12.31;100.00;101034.19;5078060;28;20137;-69
2021/09/04 00:33:40;;;;;;;51.72;31.38;;;;;;;12.32;100.00;101026.16;5085467;28;20078;-68
2021/09/04 00:36:07;;;;;;;48.83;31.00;;;;;;;12.49;100.00;101032.22;5079522;28;20071;-69
2021/09/04 00:38:34;;;;;;;49.97;31.67;;;;;;;12.36;100.00;101032.94;5080315;28;20080;-69
2021/09/04 00:41:01;;;;;;;53.60;33.22;;;;;;;12.24;100.00;101027.56;5086597;28;20044;-69
2021/09/04 00:43:30;;;;;;;57.85;34.75;;;;;;;12.22;100.00;101032.09;5084977;28;20082;-69
2021/09/04 00:46:15;;;;;;;52.38;32.15;;;;;;;12.26;100.00;101031.81;5076380;28;20151;-69
2021/09/04 00:48:43;;;;;;;51.33;30.13;;;;;;;12.49;100.00;101032.22;5079445;28;20139;-69
2021/09/04 00:51:16;;;;;;;45.58;30.73;;;;;;;12.43;100.00;101025.53;5086469;28;20454;-71
2021/09/04 00:53:43;;;;;;;47.55;31.00;;;;;;;12.45;100.00;101030.72;5066917;28;20138;-69
2021/09/04 00:56:13;;;;;;;52.50;31.08;;;;;;;12.43;100.00;101036.09;5077121;28;20603;-68
2021/09/04 00:58:41;;;;;;;54.08;32.63;;;;;;;12.37;100.00;101024.09;5067876;28;20162;-68
2021/09/04 01:01:08;;;;;;;45.72;31.20;;;;;;;12.38;100.00;101020.53;5072990;28;20054;-69
2021/09/04 01:03:36;;;;;;;48.90;31.75;;;;;;;12.53;100.00;101017.91;5059416;28;20477;-68
2021/09/04 01:06:03;;;;;;;54.90;32.00;;;;;;;12.34;100.00;101020.81;5082114;28;20189;-69
2021/09/04 01:08:31;;;;;;;56.78;32.38;;;;;;;12.29;100.00;101026.34;5080348;28;20490;-70
2021/09/04 01:10:58;;;;;;;49.78;31.45;;;;;;;12.39;100.00;101027.50;5064191;28;20489;-69
2021/09/04 01:13:25;;;;;;;52.55;32.13;;;;;;;12.52;100.00;101027.63;5085163;28;20078;-69
2021/09/04 01:15:53;;;;;;;52.05;32.08;;;;;;;12.31;100.00;101026.25;5063043;28;20461;-69
2021/09/04 01:18:21;;;;;;;51.85;32.90;;;;;;;12.12;100.00;101023.88;5083291;28;20437;-70
2021/09/04 01:20:49;;;;;;;49.75;33.03;;;;;;;12.10;100.00;101026.56;5084679;28;20121;-69
2021/09/04 01:23:16;;;;;;;56.08;33.13;;;;;;;12.09;100.00;101026.69;5089396;28;20104;-69
2021/09/04 01:25:53;;;;;;;53.63;34.03;;;;;;;12.19;100.00;101022.53;5087027;28;20048;-68
2021/09/04 01:28:21;;;;;;;50.13;32.95;;;;;;;12.41;100.00;101011.56;5083743;28;20139;-69
2021/09/04 01:30:48;;;;;;;50.72;33.42;;;;;;;12.33;100.00;101021.72;5054729;28;20408;-69
2021/09/04 01:33:16;;;;;;;51.38;33.55;;;;;;;12.19;100.00;101030.47;5074421;28;20095;-70
2021/09/04 01:35:43;;;;;;;47.78;32.53;;;;;;;12.22;100.00;101029.44;5082064;28;20429;-70
2021/09/04 01:38:10;;;;;;;54.22;31.77;;;;;;;12.21;100.00;101025.13;5074660;28;20122;-70
2021/09/04 01:40:37;;;;;;;49.15;31.83;;;;;;;12.24;100.00;101024.91;5082884;28;20470;-70
2021/09/04 01:43:04;;;;;;;46.10;30.50;;;;;;;12.29;100.00;101015.78;5082733;28;20048;-71
2021/09/04 01:45:32;;;;;;;50.22;31.63;;;;;;;12.19;100.00;101014.63;5083781;28;20537;-69
2021/09/04 01:47:59;;;;;;;50.58;32.25;;;;;;;12.10;100.00;101009.88;5085622;28;20139;-69
2021/09/04 01:50:26;;;;;;;52.22;34.30;;;;;;;12.01;100.00;101013.06;5078417;28;20063;-68
2021/09/04 01:52:53;;;;;;;51.80;32.63;;;;;;;12.10;100.00;101005.47;5080092;28;20048;-69
2021/09/04 01:55:21;;;;;;;56.05;33.50;;;;;;;11.94;100.00;101006.47;5072969;28;20067;-69
2021/09/04 01:57:48;;;;;;;52.30;31.73;;;;;;;11.85;100.00;101006.06;5081380;28;20060;-70
2021/09/04 02:00:15;;;;;;;49.90;32.17;;;;;;;11.71;100.00;101010.38;5060628;28;20059;-69
2021/09/04 02:02:43;;;;;;;49.45;32.83;;;;;;;11.60;100.00;101008.38;5085169;28;20048;-69
2021/09/04 02:05:11;;;;;;;51.00;34.22;;;;;;;11.85;100.00;101013.97;5092388;28;20150;-70
2021/09/04 02:07:38;;;;;;;58.85;33.55;;;;;;;11.86;100.00;101006.91;5084807;28;20078;-69
2021/09/04 02:10:06;;;;;;;52.03;32.45;;;;;;;11.81;100.00;101009.78;5082405;28;20336;-68
2021/09/04 02:12:34;;;;;;;53.17;32.38;;;;;;;11.84;100.00;101014.03;5085016;28;20040;-69
2021/09/04 02:15:02;;;;;;;56.92;33.90;;;;;;;12.07;100.00;101005.66;5089652;28;20103;-69
2021/09/04 02:17:29;;;;;;;53.42;31.80;;;;;;;12.06;100.00;101008.38;5087730;28;20215;-68
2021/09/04 02:19:57;;;;;;;52.35;32.28;;;;;;;12.07;100.00;101008.31;5088179;28;20147;-69
2021/09/04 02:22:24;;;;;;;50.50;32.72;;;;;;;12.11;100.00;101001.03;5088963;28;20040;-69
2021/09/04 02:24:51;;;;;;;46.90;29.15;;;;;;;12.22;100.00;100997.78;5088195;28;20148;-72
2021/09/04 02:27:18;;;;;;;50.40;30.08;;;;;;;12.26;100.00;100994.84;5089710;28;20136;-69
2021/09/04 02:29:45;;;;;;;52.40;31.02;;;;;;;12.18;100.00;100994.47;5084242;28;20332;-69
2021/09/04 02:32:13;;;;;;;54.25;30.27;;;;;;;12.04;100.00;100994.44;5088010;28;20048;-68
2021/09/04 02:34:40;;;;;;;48.88;30.75;;;;;;;11.99;100.00;101001.78;5087938;28;20402;-68
2021/09/04 02:37:07;;;;;;;49.63;31.58;;;;;;;11.92;100.00;100998.63;5089679;28;20460;-67
2021/09/04 02:39:34;;;;;;;43.55;29.10;;;;;;;11.90;100.00;100998.72;5079703;28;20054;-68
2021/09/04 02:42:01;;;;;;;51.15;32.03;;;;;;;11.86;100.00;101001.63;5089010;28;20583;-69
2021/09/04 02:44:28;;;;;;;51.47;32.58;;;;;;;11.70;100.00;101001.63;5085383;28;20055;-68
2021/09/04 02:46:56;;;;;;;50.60;31.52;;;;;;;11.57;100.00;100995.34;5087663;28;20063;-70
2021/09/04 02:49:23;;;;;;;51.95;32.17;;;;;;;11.52;100.00;100992.97;5086403;28;20578;-68
2021/09/04 02:51:50;;;;;;;56.17;33.35;;;;;;;11.70;100.00;100991.06;5083044;28;20415;-69
2021/09/04 02:54:17;;;;;;;51.17;32.10;;;;;;;11.81;100.00;100998.38;5082387;28;20114;-68
2021/09/04 02:56:44;;;;;;;55.88;33.13;;;;;;;11.93;100.00;100996.84;5062279;28;20036;-69
2021/09/04 02:59:11;;;;;;;46.10;31.23;;;;;;;11.96;100.00;101004.59;5079274;28;20143;-69
2021/09/04 03:01:39;;;;;;;48.90;32.53;;;;;;;12.02;100.00;101001.56;5086340;28;20050;-71
2021/09/04 03:04:06;;;;;;;50.65;31.25;;;;;;;11.76;100.00;101005.72;5081313;28;20158;-70
2021/09/04 03:06:33;;;;;;;60.10;32.78;;;;;;;11.55;100.00;100998.09;5084174;28;20048;-68
2021/09/04 03:09:00;;;;;;;54.63;32.40;;;;;;;11.46;100.00;100993.34;5066385;28;20131;-69
2021/09/04 03:11:28;;;;;;;55.88;33.25;;;;;;;11.54;100.00;100990.28;5079597;28;20151;-69
2021/09/04 03:13:55;;;;;;;47.10;31.58;;;;;;;11.87;100.00;100992.78;5082989;28;20055;-68
2021/09/04 03:16:22;;;;;;;45.83;29.92;;;;;;;12.11;100.00;100995.75;5082400;28;20129;-69
2021/09/04 03:18:49;;;;;;;45.53;30.35;;;;;;;11.97;100.00;101003.63;5088160;28;20119;-70
2021/09/04 03:21:17;;;;;;;47.95;31.60;;;;;;;12.18;100.00;101002.38;5080265;28;20110;-69
2021/09/04 03:23:44;;;;;;;49.53;31.60;;;;;;;11.83;100.00;101007.09;5078774;28;20052;-70
2021/09/04 03:26:11;;;;;;;45.47;29.35;;;;;;;11.82;100.00;101005.34;5081346;28;20053;-69
2021/09/04 03:28:39;;;;;;;42.97;29.55;;;;;;;11.75;100.00;101009.28;5085151;28;20055;-68
2021/09/04 03:31:06;;;;;;;56.42;33.80;;;;;;;11.65;100.00;101009.81;5085855;28;20080;-69
2021/09/04 03:33:33;;;;;;;51.10;30.60;;;;;;;11.48;100.00;101014.34;5066582;28;20601;-69
2021/09/04 03:36:01;;;;;;;49.47;30.38;;;;;;;11.48;100.00;101002.00;5087266;28;20500;-69
2021/09/04 03:38:28;;;;;;;49.63;30.58;;;;;;;11.34;100.00;101009.84;5084446;28;20080;-68
2021/09/04 03:40:56;;;;;;;50.63;31.42;;;;;;;11.39;100.00;101011.31;5083423;28;20048;-67
2021/09/04 03:43:23;;;;;;;56.38;33.10;;;;;;;11.63;100.00;101011.69;5086760;28;20051;-68
2021/09/04 03:45:50;;;;;;;49.22;32.38;;;;;;;11.73;100.00;101011.16;5095920;28;20147;-69
2021/09/04 03:48:17;;;;;;;59.60;35.03;;;;;;;11.66;100.00;101013.28;5090850;28;20135;-68
2021/09/04 03:50:44;;;;;;;62.47;35.35;;;;;;;11.60;100.00;101014.50;5086388;28;20131;-68
2021/09/04 03:53:11;;;;;;;52.53;34.17;;;;;;;11.65;100.00;101017.72;5087722;28;20097;-68
2021/09/04 03:55:39;;;;;;;56.97;33.53;;;;;;;11.69;100.00;101009.63;5079705;28;20078;-69
2021/09/04 03:58:06;;;;;;;57.85;35.22;;;;;;;11.69;100.00;101014.91;5085884;28;20064;-68
2021/09/04 04:00:33;;;;;;;63.90;35.63;;;;;;;11.70;100.00;101016.59;5081028;28;20072;-69
2021/09/04 04:03:00;;;;;;;51.97;33.13;;;;;;;11.85;100.00;101024.53;5081295;28;20128;-67
2021/09/04 04:05:28;;;;;;;52.80;31.52;;;;;;;12.01;100.00;101021.84;5078805;28;20135;-68
2021/09/04 04:07:55;;;;;;;55.28;32.40;;;;;;;12.16;100.00;101017.47;5065207;28;20071;-68
2021/09/04 04:10:22;;;;;;;48.53;31.25;;;;;;;12.20;100.00;101018.09;5085282;28;20162;-68
2021/09/04 04:12:50;;;;;;;52.22;31.45;;;;;;;12.32;100.00;101018.22;5083473;28;20764;-69
2021/09/04 04:15:17;;;;;;;51.35;30.95;;;;;;;12.32;100.00;101020.03;5083762;28;20055;-69
2021/09/04 04:17:44;;;;;;;48.67;30.52;;;;;;;12.19;100.00;101022.53;5085984;28;20135;-69
2021/09/04 04:20:11;;;;;;;43.60;30.00;;;;;;;12.44;100.00;101029.00;5079405;28;20052;-69
2021/09/04 04:22:39;;;;;;;48.28;30.77;;;;;;;12.45;100.00;101020.16;5084383;28;20064;-69
2021/09/04 04:25:09;;;;;;;42.13;29.35;;;;;;;12.51;100.00;101022.41;5091644;28;20135;-69
2021/09/04 04:27:38;;;;;;;44.85;30.17;;;;;;;12.40;100.00;101023.91;5078554;28;20498;-70
2021/09/04 04:30:06;;;;;;;48.72;31.05;;;;;;;12.24;100.00;101025.75;5061777;28;20205;-69
2021/09/04 04:32:33;;;;;;;50.63;29.92;;;;;;;12.08;100.00;101031.09;5086477;28;20550;-69
2021/09/04 04:35:01;;;;;;;39.08;28.52;;;;;;;12.17;100.00;101035.00;5084654;28;20450;-69
2021/09/04 04:37:28;;;;;;;45.25;29.90;;;;;;;12.24;100.00;101031.03;5086973;28;20230;-67
2021/09/04 04:39:56;;;;;;;43.03;30.55;;;;;;;12.28;100.00;101035.19;5073401;28;20142;-68
2021/09/04 04:42:23;;;;;;;43.03;29.13;;;;;;;12.37;100.00;101037.28;5085219;28;20139;-68
2021/09/04 04:44:50;;;;;;;40.70;29.08;;;;;;;12.60;100.00;101041.19;5084075;28;20052;-69
2021/09/04 04:47:17;;;;;;;43.83;29.60;;;;;;;12.62;100.00;101043.75;5084237;28;20101;-69
2021/09/04 04:49:44;;;;;;;45.92;29.00;;;;;;;12.60;100.00;101045.63;5084497;28;20135;-69
2021/09/04 04:52:12;;;;;;;45.05;30.40;;;;;;;12.63;100.00;101050.72;5086338;28;20131;-69
2021/09/04 04:54:39;;;;;;;48.78;30.17;;;;;;;12.72;100.00;101047.53;5086656;28;20135;-69
2021/09/04 04:57:07;;;;;;;46.17;28.90;;;;;;;12.77;100.00;101049.88;5079082;28;20135;-70
2021/09/04 04:59:34;;;;;;;44.50;29.67;;;;;;;12.76;100.00;101045.53;5073042;28;20055;-68
2021/09/04 05:02:01;;;;;;;40.38;27.70;;;;;;;12.81;100.00;101054.03;5082688;28;20040;-68
2021/09/04 05:04:29;;;;;;;39.10;26.67;;;;;;;12.85;100.00;101047.63;5083932;28;20151;-68
2021/09/04 05:06:56;;;;;;;40.05;28.27;;;;;;;12.82;100.00;101055.72;5082251;28;20062;-69
2021/09/04 05:09:27;;;;;;;42.58;26.58;;;;;;;12.93;100.00;101051.50;5065633;28;21708;-69
2021/09/04 05:11:54;;;;;;;39.50;27.17;;;;;;;13.03;100.00;101048.28;5082685;28;20146;-68
2021/09/04 05:14:21;;;;;;;40.28;26.77;;;;;;;12.91;100.00;101057.78;5079211;28;20070;-68
2021/09/04 05:16:49;;;;;;;39.50;26.58;;;;;;;12.86;100.00;101058.09;5086915;28;20671;-69
2021/09/04 05:19:16;;;;;;;38.35;26.73;;;;;;;12.81;100.00;101051.38;5085606;28;20048;-68
2021/09/04 05:21:43;;;;;;;36.97;24.45;;;;;;;12.79;100.00;101051.50;5082716;28;20093;-68
2021/09/04 05:24:10;;;;;;;39.40;23.60;;;;;;;12.81;100.00;101054.88;5077215;28;20047;-68
2021/09/04 05:26:37;;;;;;;33.50;23.45;;;;;;;12.92;100.00;101055.09;5068847;28;20135;-70
2021/09/04 05:29:04;;;;;;;34.60;24.75;;;;;;;12.66;100.00;101054.03;5085647;28;20127;-70
2021/09/04 05:31:32;;;;;;;35.40;25.40;;;;;;;12.52;100.00;101058.44;5085270;28;20573;-69
2021/09/04 05:33:59;;;;;;;38.63;25.20;;;;;;;12.36;100.00;101061.16;5074865;28;20131;-69
2021/09/04 05:36:26;;;;;;;46.78;25.27;;;;;;;12.46;100.00;101064.94;5086945;28;20058;-69
2021/09/04 05:38:53;;;;;;;41.53;24.98;;;;;;;12.63;100.00;101066.56;5086064;28;20129;-68
2021/09/04 05:41:20;;;;;;;35.58;25.25;;;;;;;12.64;100.00;101068.25;5059892;28;20054;-68
2021/09/04 05:43:47;;;;;;;35.33;23.98;;;;;;;12.71;100.00;101068.75;5094896;28;20131;-69
2021/09/04 05:46:15;;;;;;;36.58;25.02;;;;;;;12.72;100.00;101067.81;5092264;28;20131;-69
2021/09/04 05:48:42;;;;;;;40.35;25.17;;;;;;;12.62;100.00;101062.22;5084496;28;20127;-67
2021/09/04 05:51:09;;;;;;;36.15;25.45;;;;;;;12.47;100.00;101068.41;5087055;28;20503;-68
2021/09/04 05:53:38;;;;;;;35.85;25.75;;;;;;;12.64;100.00;101068.25;5075164;28;20062;-68
2021/09/04 05:56:06;;;;;;;36.15;23.98;;;;;;;12.87;100.00;101072.13;5082731;28;20041;-68
2021/09/04 05:58:33;;;;;;;36.80;23.60;;;;;;;13.06;100.00;101066.59;5086344;28;20253;-69
2021/09/04 06:01:00;;;;;;;38.05;23.05;;;;;;;13.23;100.00;101066.41;5087354;28;20075;-69
2021/09/04 06:03:28;;;;;;;32.72;21.30;;;;;;;13.46;100.00;101064.09;5087412;28;20174;-68
2021/09/04 06:05:59;;;;;;;27.83;19.48;;;;;;;13.55;100.00;101066.97;5084787;28;20142;-68
2021/09/04 06:08:27;;;;;;;26.88;20.48;;;;;;;13.65;100.00;101062.81;5088524;28;20135;-68
2021/09/04 06:10:54;;;;;;;26.85;21.00;;;;;;;13.72;100.00;101063.25;5083300;28;20143;-69
2021/09/04 06:13:21;;;;;;;31.52;20.75;;;;;;;13.81;100.00;101057.38;5089497;28;20097;-68
2021/09/04 06:15:48;;;;;;;28.75;21.33;;;;;;;13.75;100.00;101068.34;5089347;28;20060;-69
2021/09/04 06:18:19;;;;;;;29.25;20.33;;;;;;;13.84;100.00;101065.09;5088286;28;20062;-68
2021/09/04 06:20:47;;;;;;;30.05;21.58;;;;;;;13.92;100.00;101065.47;5087934;28;20700;-69
2021/09/04 06:23:14;;;;;;;27.73;20.10;;;;;;;14.02;100.00;101064.84;5080629;28;20123;-70
2021/09/04 06:25:41;;;;;;;33.38;22.58;;;;;;;14.11;100.00;101065.09;5079883;28;20044;-69
2021/09/04 06:28:08;;;;;;;29.60;21.67;;;;;;;14.26;100.00;101063.19;5076289;28;20607;-70
2021/09/04 06:30:36;;;;;;;31.25;20.95;;;;;;;13.80;100.00;101060.97;5079377;28;20538;-68
2021/09/04 06:33:03;;;;;;;35.65;21.38;;;;;;;13.41;100.00;101064.38;5080704;28;20147;-69
2021/09/04 06:35:30;;;;;;;33.80;22.75;;;;;;;13.05;100.00;101068.34;5078985;28;20105;-69
2021/09/04 06:37:57;;;;;;;30.92;22.13;;;;;;;13.25;100.00;101079.53;5076523;28;20136;-69
2021/09/04 06:40:24;;;;;;;28.25;20.88;;;;;;;13.33;100.00;101070.19;5066915;28;20518;-69
2021/09/04 06:42:52;;;;;;;30.83;22.45;;;;;;;13.42;100.00;101074.03;5088421;28;20072;-70
2021/09/04 06:45:19;;;;;;;31.58;22.98;;;;;;;13.26;100.00;101075.94;5084243;28;20048;-70
2021/09/04 06:47:46;;;;;;;44.33;21.48;;;;;;;13.62;100.00;101073.59;5088016;28;20040;-70
2021/09/04 06:50:13;;;;;;;37.88;20.98;;;;;;;14.04;100.00;101079.66;5084090;28;20131;-69
2021/09/04 06:52:42;;;;;;;33.47;21.98;;;;;;;14.27;100.00;101077.28;5085809;28;20150;-68
2021/09/04 06:55:09;;;;;;;30.73;21.35;;;;;;;14.44;100.00;101083.16;5083654;28;20146;-68
2021/09/04 06:57:36;;;;;;;32.42;19.90;;;;;;;14.50;100.00;101087.22;5084732;28;20437;-68
2021/09/04 07:00:04;;;;;;;30.77;19.85;;;;;;;14.29;100.00;101081.53;5084181;28;20158;-68
2021/09/04 07:02:32;;;;;;;24.17;18.10;;;;;;;14.65;100.00;101086.19;5068689;28;20135;-70
2021/09/04 07:04:59;;;;;;;24.85;17.52;;;;;;;14.68;100.00;101087.78;5082804;28;20040;-67
2021/09/04 07:07:27;;;;;;;24.52;18.02;;;;;;;14.71;100.00;101087.53;5086186;28;20048;-68
2021/09/04 07:09:54;;;;;;;26.08;16.45;;;;;;;14.90;100.00;101089.78;5084478;28;20139;-67
2021/09/04 07:12:21;;;;;;;25.88;17.65;;;;;;;14.96;100.00;101093.81;5083473;28;20048;-69
2021/09/04 07:14:48;;;;;;;27.40;17.80;;;;;;;14.97;100.00;101096.34;5085103;28;20044;-69
2021/09/04 07:17:15;;;;;;;23.70;16.67;;;;;;;15.02;100.00;101103.97;5090447;28;20054;-68
2021/09/04 07:19:43;;;;;;;23.33;16.98;;;;;;;15.00;100.00;101096.16;5089309;28;20080;-68
2021/09/04 07:22:10;;;;;;;31.73;16.70;;;;;;;15.00;100.00;101096.16;5096665;28;20541;-68
2021/09/04 07:24:38;;;;;;;25.52;16.27;;;;;;;15.16;99.64;101099.41;5087050;28;20050;-69
2021/09/04 07:27:06;;;;;;;35.10;18.05;;;;;;;14.75;100.00;101096.13;5084932;28;20151;-68
2021/09/04 07:29:33;;;;;;;22.35;16.80;;;;;;;14.28;100.00;101108.13;5084957;28;20051;-68
2021/09/04 07:32:01;;;;;;;23.70;17.70;;;;;;;14.09;100.00;101104.03;5089935;28;20123;-70
2021/09/04 07:34:28;;;;;;;30.60;18.67;;;;;;;13.68;100.00;101102.28;5081607;28;20156;-68
2021/09/04 07:36:55;;;;;;;24.98;19.33;;;;;;;13.86;100.00;101100.25;5089721;28;20128;-68
2021/09/04 07:39:22;;;;;;;31.40;18.30;;;;;;;13.99;100.00;101102.09;5085212;28;20058;-68
2021/09/04 07:41:50;;;;;;;27.52;18.83;;;;;;;14.07;100.00;101105.09;5099328;28;20120;-68
2021/09/04 07:44:17;;;;;;;38.03;19.10;;;;;;;14.21;100.00;101102.38;5077715;28;20147;-68
2021/09/04 07:46:44;;;;;;;34.22;19.45;;;;;;;14.41;100.00;101098.41;5089149;28;20075;-68
2021/09/04 07:49:11;;;;;;;29.05;18.42;;;;;;;14.73;100.00;101098.06;5076918;28;20137;-70
2021/09/04 07:51:38;;;;;;;25.38;18.35;;;;;;;15.06;100.00;101102.81;5066518;28;20055;-69
2021/09/04 07:54:05;;;;;;;23.00;17.83;;;;;;;14.83;100.00;101105.25;5071954;28;20044;-67
2021/09/04 07:56:33;;;;;;;26.83;16.45;;;;;;;15.07;100.00;101104.50;5076613;28;20071;-68
2021/09/04 07:59:00;;;;;;;23.70;16.15;;;;;;;15.59;99.49;101109.63;5084904;28;20143;-69
2021/09/04 08:01:27;;;;;;;22.15;16.38;;;;;;;15.89;96.26;101111.00;5081365;28;20048;-68
2021/09/04 08:03:55;;;;;;;25.95;17.60;;;;;;;15.65;96.59;101111.84;5073976;28;20123;-67
2021/09/04 08:06:22;;;;;;;28.10;17.58;;;;;;;15.53;97.82;101125.13;5072598;28;20128;-67
2021/09/04 08:08:49;;;;;;;23.55;16.08;;;;;;;16.13;94.74;101114.53;5084447;28;20082;-67
2021/09/04 08:11:18;;;;;;;25.27;16.80;;;;;;;16.47;91.54;101122.59;5072000;28;20057;-68
2021/09/04 08:13:45;;;;;;;23.50;16.20;;;;;;;16.65;90.70;101131.00;5078411;28;20135;-68
2021/09/04 08:16:13;;;;;;;23.08;15.63;;;;;;;16.60;91.11;101130.50;5055470;28;20053;-68
2021/09/04 08:18:40;;;;;;;22.85;17.10;;;;;;;15.97;94.08;101132.53;5075737;28;20067;-68
2021/09/04 08:21:07;;;;;;;24.45;16.42;;;;;;;15.89;95.54;101133.09;5079420;28;20547;-70
2021/09/04 08:23:34;;;;;;;23.75;16.17;;;;;;;16.01;95.12;101135.81;5076010;28;20052;-68
2021/09/04 08:26:02;;;;;;;24.35;17.70;;;;;;;16.02;93.83;101141.00;5079156;28;20726;-67
2021/09/04 08:28:29;;;;;;;27.00;17.05;;;;;;;15.69;95.46;101139.88;5074763;28;20938;-68
2021/09/04 08:30:56;;;;;;;25.70;17.88;;;;;;;15.61;96.29;101139.53;5072333;28;20071;-66
2021/09/04 08:33:23;;;;;;;34.55;18.95;;;;;;;15.52;97.05;101139.34;5073747;28;20168;-68
2021/09/04 08:35:50;;;;;;;29.58;17.13;;;;;;;15.85;95.76;101141.41;5073740;28;20120;-67
2021/09/04 08:38:18;;;;;;;26.05;16.23;;;;;;;16.32;93.82;101140.56;5073690;28;20083;-68
2021/09/04 08:40:46;;;;;;;23.90;17.00;;;;;;;16.84;90.51;101141.97;5074197;28;20058;-68
2021/09/04 08:43:13;;;;;;;22.23;16.85;;;;;;;16.58;89.55;101141.25;5071214;28;20044;-67
2021/09/04 08:45:44;;;;;;;23.92;15.32;;;;;;;16.92;89.33;101146.66;5074851;28;20126;-68
2021/09/04 08:48:12;;;;;;;23.23;16.00;;;;;;;17.25;86.57;101140.56;5080091;28;20091;-67
2021/09/04 08:50:39;;;;;;;25.10;15.98;;;;;;;17.46;85.95;101144.16;5077282;28;20044;-68
2021/09/04 08:53:07;;;;;;;21.63;14.43;;;;;;;17.07;86.98;101145.50;5073586;28;20056;-68
2021/09/04 08:55:34;;;;;;;23.75;15.93;;;;;;;16.79;87.99;101146.75;5074219;28;20130;-66
2021/09/04 08:58:01;;;;;;;24.42;15.02;;;;;;;17.07;87.58;101150.81;5080856;28;20072;-70
2021/09/04 09:00:31;;;;;;;22.85;15.57;;;;;;;17.71;83.16;101148.38;5057065;28;20588;-66
2021/09/04 09:02:59;;;;;;;26.60;15.73;;;;;;;17.15;85.73;101152.84;5062424;28;20862;-66
2021/09/04 09:05:39;;;;;;;23.58;15.57;;;;;;;17.75;83.26;101151.66;5059608;28;20047;-67
2021/09/04 09:08:06;;;;;;;24.05;16.25;;;;;;;17.54;83.55;101150.69;5080022;28;20075;-67
2021/09/04 09:10:36;;;;;;;20.15;13.98;;;;;;;18.25;81.38;101143.16;5083541;28;20051;-66
2021/09/04 09:13:05;;;;;;;22.98;13.55;;;;;;;18.45;80.50;101148.50;5062205;28;20411;-66
2021/09/04 09:15:34;;;;;;;22.25;14.07;;;;;;;18.03;81.68;101152.09;5085231;28;20131;-68
2021/09/04 09:18:10;;;;;;;23.35;13.45;;;;;;;18.03;81.54;101155.59;5086657;28;20055;-67
2021/09/04 09:20:42;;;;;;;19.55;13.50;;;;;;;18.54;78.99;101152.22;5081734;28;20063;-67
2021/09/04 09:23:12;;;;;;;23.67;12.95;;;;;;;18.68;78.99;101159.06;5060569;28;20140;-68
2021/09/04 09:25:40;;;;;;;22.58;14.02;;;;;;;18.87;77.61;101158.41;5083802;28;20036;-68
2021/09/04 09:28:12;;;;;;;20.33;13.77;;;;;;;18.83;78.03;101155.16;5065808;28;20356;-67
2021/09/04 09:30:41;;;;;;;22.00;13.00;;;;;;;18.89;77.63;101151.94;5052183;28;20052;-67
2021/09/04 09:33:11;;;;;;;24.75;14.98;;;;;;;17.95;81.18;101158.03;5075330;28;20068;-66
2021/09/04 09:35:41;;;;;;;20.63;13.88;;;;;;;18.01;81.70;101159.34;5084328;28;20051;-67
2021/09/04 09:38:11;;;;;;;24.98;14.68;;;;;;;17.67;83.12;101156.72;5089964;28;20243;-67
2021/09/04 09:40:39;;;;;;;22.92;13.93;;;;;;;17.24;86.59;101161.94;5088597;28;20056;-68
2021/09/04 09:43:17;;;;;;;22.38;14.45;;;;;;;17.57;85.57;101167.28;5086952;28;20453;-67
2021/09/04 09:45:44;;;;;;;26.95;13.80;;;;;;;17.75;83.91;101164.97;5083654;28;20151;-68
2021/09/04 09:48:11;;;;;;;25.52;15.35;;;;;;;17.77;83.23;101162.19;5084368;28;20276;-67
2021/09/04 09:50:39;;;;;;;24.65;14.30;;;;;;;17.52;84.82;101164.13;5076468;28;20082;-68
2021/09/04 09:53:06;;;;;;;21.50;14.15;;;;;;;18.00;83.09;101165.66;5085669;28;20721;-67
2021/09/04 09:55:33;;;;;;;21.25;14.00;;;;;;;18.12;82.48;101168.16;5076491;28;20060;-66
2021/09/04 09:58:01;;;;;;;24.88;14.23;;;;;;;17.98;82.65;101167.59;5082018;28;20152;-67
2021/09/04 10:00:30;;;;;;;22.85;13.85;;;;;;;17.93;82.88;101171.47;5082465;28;20152;-66
2021/09/04 10:02:59;;;;;;;29.13;15.07;;;;;;;17.87;83.34;101169.28;5083792;28;20839;-68
2021/09/04 10:05:28;;;;;;;25.05;14.43;;;;;;;17.98;83.69;101164.94;5074371;28;20056;-68
2021/09/04 10:07:57;;;;;;;20.75;14.38;;;;;;;18.23;82.53;101170.78;5065117;28;20066;-68
2021/09/04 10:10:27;;;;;;;25.75;16.10;;;;;;;18.01;82.42;101160.19;5075238;28;20392;-66
2021/09/04 10:12:54;;;;;;;21.98;14.77;;;;;;;17.84;82.51;101168.72;5084611;28;20485;-66
2021/09/04 10:15:25;;;;;;;22.77;15.57;;;;;;;17.92;83.30;101166.25;5078938;28;20074;-69
2021/09/04 10:17:54;;;;;;;26.83;15.30;;;;;;;18.42;80.48;101169.28;5084717;28;20083;-67
2021/09/04 10:20:25;;;;;;;22.17;15.13;;;;;;;18.10;82.25;101162.13;5077771;28;20471;-66
2021/09/04 10:23:17;;;;;;;30.15;15.80;;;;;;;17.98;83.18;101164.94;5077932;28;20134;-68
2021/09/04 10:25:44;;;;;;;30.73;16.77;;;;;;;18.10;83.50;101169.25;5050444;28;20048;-67
2021/09/04 10:28:11;;;;;;;25.70;15.50;;;;;;;18.27;82.76;101165.19;5081756;28;20054;-67
2021/09/04 10:30:39;;;;;;;26.27;16.77;;;;;;;18.05;81.86;101158.13;5076458;28;20048;-67
2021/09/04 10:33:16;;;;;;;27.80;16.20;;;;;;;18.53;80.34;101157.69;5082538;28;20135;-66
2021/09/04 10:35:51;;;;;;;20.25;13.70;;;;;;;18.80;79.16;101162.56;5078296;28;20093;-66
2021/09/04 10:38:18;;;;;;;25.30;15.25;;;;;;;18.65;79.26;101160.19;5078564;28;20048;-69
2021/09/04 10:41:14;;;;;;;23.55;14.52;;;;;;;18.58;80.43;101161.66;5081638;28;20103;-65
2021/09/04 10:43:42;;;;;;;26.45;15.93;;;;;;;18.50;80.76;101157.94;5077780;28;20052;-66
2021/09/04 10:46:11;;;;;;;21.30;14.32;;;;;;;18.93;78.52;101156.03;5079613;28;20100;-68
2021/09/04 10:48:38;;;;;;;22.92;15.55;;;;;;;19.05;77.27;101159.50;5087297;28;20464;-67
2021/09/04 10:51:11;;;;;;;23.50;14.68;;;;;;;18.37;80.54;101156.34;5081010;28;20135;-66
2021/09/04 10:53:48;;;;;;;23.02;15.93;;;;;;;18.52;80.59;101159.53;5082811;28;20197;-67
2021/09/04 10:56:23;;;;;;;29.80;16.15;;;;;;;18.54;79.69;101162.91;5081238;28;20378;-67
2021/09/04 10:58:52;;;;;;;22.17;15.52;;;;;;;18.60;79.65;101154.41;5077614;28;20054;-68
2021/09/04 11:01:37;;;;;;;22.65;15.38;;;;;;;18.43;80.15;101155.81;5062050;28;20474;-66
2021/09/04 11:04:05;;;;;;;25.63;17.38;;;;;;;18.04;82.91;101159.94;5082824;28;20155;-67
2021/09/04 11:06:32;;;;;;;23.50;15.73;;;;;;;18.16;83.34;101158.94;5079319;28;20048;-66
2021/09/04 11:08:59;;;;;;;34.58;16.17;;;;;;;18.46;81.48;101162.69;5082795;28;20048;-66